createdAt,value
2024-01-29T00:00:57.908Z,101587.47
2024-01-29T00:03:25.444Z,101584.22
2024-01-29T00:05:52.884Z,101585.78
2024-01-29T00:08:20.181Z,101599.53
2024-01-29T00:10:47.797Z,101579.59
2024-01-29T00:13:15.218Z,101572.00
2024-01-29T00:15:42.615Z,101575.50
2024-01-29T00:18:10.151Z,101568.75
2024-01-29T00:20:37.563Z,101577.22
2024-01-29T00:23:04.916Z,101576.63
2024-01-29T00:25:32.192Z,101583.78
2024-01-29T00:27:59.548Z,101583.69
2024-01-29T00:30:27.028Z,101575.28
2024-01-29T00:32:54.448Z,101581.22
2024-01-29T00:35:21.868Z,101584.19
2024-01-29T00:37:49.168Z,101582.63
2024-01-29T00:40:16.629Z,101580.28
2024-01-29T00:42:45.083Z,101589.81
2024-01-29T00:45:12.389Z,101598.28
2024-01-29T00:47:39.695Z,101603.34
2024-01-29T00:50:07.110Z,101615.72
2024-01-29T00:52:34.626Z,101603.28
2024-01-29T00:55:02.151Z,101594.06
2024-01-29T00:57:30.881Z,101594.56
2024-01-29T00:59:58.259Z,101598.47
2024-01-29T01:02:25.594Z,101602.22
2024-01-29T01:04:52.971Z,101594.97
2024-01-29T01:07:20.447Z,101604.34
2024-01-29T01:09:47.807Z,101598.72
2024-01-29T01:12:15.111Z,101599.63
2024-01-29T01:14:42.386Z,101595.38
2024-01-29T01:17:09.684Z,101595.28
2024-01-29T01:19:37.141Z,101595.13
2024-01-29T01:22:04.854Z,101592.97
2024-01-29T01:24:32.250Z,101598.03
2024-01-29T01:26:59.575Z,101602.38
2024-01-29T01:29:26.880Z,101604.50
2024-01-29T01:31:54.197Z,101604.50
2024-01-29T01:34:21.597Z,101594.97
2024-01-29T01:36:49.027Z,101592.44
2024-01-29T01:39:16.446Z,101592.97
2024-01-29T01:41:51.071Z,101594.81
2024-01-29T01:44:18.392Z,101602.38
2024-01-29T01:46:46.056Z,101608.13
2024-01-29T01:49:13.734Z,101599.13
2024-01-29T01:51:41.188Z,101602.69
2024-01-29T01:54:09.747Z,101599.44
2024-01-29T01:56:39.201Z,101592.97
2024-01-29T01:59:08.400Z,101596.25
2024-01-29T02:01:35.775Z,101607.09
2024-01-29T02:04:03.342Z,101606.34
2024-01-29T02:06:30.933Z,101608.72
2024-01-29T02:08:58.332Z,101600.25
2024-01-29T02:11:25.911Z,101607.09
2024-01-29T02:13:53.195Z,101608.56
2024-01-29T02:16:20.501Z,101606.78
2024-01-29T02:18:47.881Z,101608.94
2024-01-29T02:21:15.503Z,101611.47
2024-01-29T02:23:46.337Z,101606.59
2024-01-29T02:26:14.017Z,101612.88
2024-01-29T02:28:41.304Z,101607.44
2024-01-29T02:31:08.762Z,101598.53
2024-01-29T02:33:36.282Z,101598.22
2024-01-29T02:36:03.821Z,101600.03
2024-01-29T02:38:31.087Z,101592.97
2024-01-29T02:40:58.385Z,101590.81
2024-01-29T02:43:25.710Z,101585.91
2024-01-29T02:45:53.451Z,101585.75
2024-01-29T02:48:21.045Z,101587.56
2024-01-29T02:50:49.406Z,101594.38
2024-01-29T02:53:16.663Z,101591.88
2024-01-29T02:55:43.942Z,101585.75
2024-01-29T02:58:11.317Z,101581.81
2024-01-29T03:00:38.678Z,101590.22
2024-01-29T03:03:06.172Z,101591.13
2024-01-29T03:05:33.509Z,101587.13
2024-01-29T03:08:00.844Z,101588.38
2024-01-29T03:10:28.150Z,101584.94
2024-01-29T03:12:56.251Z,101573.06
2024-01-29T03:15:24.357Z,101568.75
2024-01-29T03:17:51.878Z,101572.91
2024-01-29T03:20:19.241Z,101575.22
2024-01-29T03:22:46.525Z,101573.44
2024-01-29T03:25:13.893Z,101584.59
2024-01-29T03:27:41.279Z,101578.84
2024-01-29T03:30:08.792Z,101580.22
2024-01-29T03:32:36.264Z,101577.97
2024-01-29T03:35:03.634Z,101565.56
2024-01-29T03:37:30.928Z,101566.34
2024-01-29T03:39:58.321Z,101572.84
2024-01-29T03:42:25.782Z,101567.72
2024-01-29T03:44:53.186Z,101568.06
2024-01-29T03:47:20.481Z,101564.56
2024-01-29T03:49:48.013Z,101565.28
2024-01-29T03:52:15.368Z,101568.53
2024-01-29T03:54:42.728Z,101569.19
2024-01-29T03:57:10.029Z,101564.81
2024-01-29T03:59:37.610Z,101551.56
2024-01-29T04:02:05.057Z,101575.81
2024-01-29T04:04:33.214Z,101579.63
2024-01-29T04:07:01.439Z,101577.84
2024-01-29T04:09:28.920Z,101578.88
2024-01-29T04:11:56.410Z,101581.19
2024-01-29T04:14:24.264Z,101587.13
2024-01-29T04:16:51.998Z,101588.97
2024-01-29T04:19:19.548Z,101589.72
2024-01-29T04:21:47.120Z,101593.66
2024-01-29T04:24:14.712Z,101606.63
2024-01-29T04:26:41.988Z,101602.97
2024-01-29T04:29:12.149Z,101597.38
2024-01-29T04:31:39.528Z,101602.00
2024-01-29T04:34:07.014Z,101590.06
2024-01-29T04:36:34.399Z,101595.25
2024-01-29T04:39:01.730Z,101593.78
2024-01-29T04:41:29.058Z,101596.25
2024-01-29T04:43:56.358Z,101593.72
2024-01-29T04:46:24.247Z,101594.81
2024-01-29T04:48:51.607Z,101603.59
2024-01-29T04:51:19.405Z,101591.88
2024-01-29T04:53:46.794Z,101590.91
2024-01-29T04:56:14.213Z,101586.81
2024-01-29T04:58:41.516Z,101583.56
2024-01-29T05:01:09.797Z,101582.81
2024-01-29T05:03:38.583Z,101588.75
2024-01-29T05:06:06.747Z,101594.38
2024-01-29T05:08:34.230Z,101586.16
2024-01-29T05:11:01.574Z,101587.94
2024-01-29T05:13:29.033Z,101588.94
2024-01-29T05:15:56.327Z,101588.22
2024-01-29T05:18:23.787Z,101590.16
2024-01-29T05:20:51.112Z,101587.09
2024-01-29T05:23:18.489Z,101585.38
2024-01-29T05:25:45.920Z,101578.91
2024-01-29T05:28:13.314Z,101577.81
2024-01-29T05:30:40.768Z,101573.09
2024-01-29T05:33:24.663Z,101568.19
2024-01-29T05:35:54.627Z,101568.25
2024-01-29T05:38:21.939Z,101574.56
2024-01-29T05:40:49.247Z,101575.38
2024-01-29T05:43:16.654Z,101575.03
2024-01-29T05:45:44.026Z,101583.44
2024-01-29T05:48:11.449Z,101594.00
2024-01-29T05:50:38.810Z,101595.34
2024-01-29T05:53:06.257Z,101591.19
2024-01-29T05:55:33.570Z,101603.59
2024-01-29T05:58:00.911Z,101599.38
2024-01-29T06:00:28.314Z,101613.72
2024-01-29T06:02:55.711Z,101617.66
2024-01-29T06:05:23.288Z,101612.72
2024-01-29T06:07:52.565Z,101616.63
2024-01-29T06:10:20.009Z,101618.91
2024-01-29T06:12:48.681Z,101611.28
2024-01-29T06:15:16.092Z,101615.84
2024-01-29T06:17:43.858Z,101614.59
2024-01-29T06:20:17.468Z,101611.91
2024-01-29T06:22:46.964Z,101612.38
2024-01-29T06:25:14.591Z,101620.09
2024-01-29T06:27:42.478Z,101613.41
2024-01-29T06:30:10.131Z,101612.81
2024-01-29T06:32:37.597Z,101608.44
2024-01-29T06:35:05.296Z,101603.53
2024-01-29T06:37:32.913Z,101601.00
2024-01-29T06:40:00.421Z,101606.81
2024-01-29T06:42:27.889Z,101603.16
2024-01-29T06:44:55.443Z,101610.31
2024-01-29T06:47:22.800Z,101605.09
2024-01-29T06:49:50.347Z,101601.59
2024-01-29T06:52:19.009Z,101608.81
2024-01-29T06:54:46.937Z,101601.91
2024-01-29T06:57:33.115Z,101595.72
2024-01-29T07:00:00.425Z,101594.97
2024-01-29T07:02:27.714Z,101583.00
2024-01-29T07:04:55.619Z,101579.81
2024-01-29T07:07:22.994Z,101571.34
2024-01-29T07:09:54.437Z,101566.91
2024-01-29T07:12:21.980Z,101565.41
2024-01-29T07:14:50.481Z,101562.69
2024-01-29T07:17:17.974Z,101565.88
2024-01-29T07:19:46.760Z,101570.69
2024-01-29T07:22:19.881Z,101564.63
2024-01-29T07:24:47.791Z,101567.16
2024-01-29T07:27:15.142Z,101576.13
2024-01-29T07:29:42.479Z,101573.78
2024-01-29T07:32:33.243Z,101567.91
2024-01-29T07:35:05.097Z,101570.53
2024-01-29T07:37:32.419Z,101569.88
2024-01-29T07:40:00.139Z,101562.13
2024-01-29T07:42:27.631Z,101568.31
2024-01-29T07:44:55.068Z,101568.47
2024-01-29T07:47:22.558Z,101575.41
2024-01-29T07:49:49.913Z,101565.94
2024-01-29T07:52:17.248Z,101562.09
2024-01-29T07:54:44.630Z,101561.88
2024-01-29T07:57:11.944Z,101566.91
2024-01-29T07:59:41.060Z,101575.41
2024-01-29T08:02:08.848Z,101568.72
2024-01-29T08:04:36.288Z,101570.88
2024-01-29T08:07:03.627Z,101569.19
2024-01-29T08:09:31.048Z,101568.16
2024-01-29T08:11:58.695Z,101564.81
2024-01-29T08:14:25.995Z,101560.88
2024-01-29T08:16:53.291Z,101572.06
2024-01-29T08:19:21.768Z,101557.06
2024-01-29T08:21:50.183Z,101557.56
2024-01-29T08:24:36.209Z,101552.34
2024-01-29T08:27:03.588Z,101550.63
2024-01-29T08:29:30.878Z,101550.97
2024-01-29T08:31:58.207Z,101545.44
2024-01-29T08:34:27.075Z,101546.16
2024-01-29T08:36:54.540Z,101563.13
2024-01-29T08:39:21.891Z,101553.66
2024-01-29T08:41:49.183Z,101555.63
2024-01-29T08:44:16.534Z,101562.06
2024-01-29T08:46:43.996Z,101549.97
2024-01-29T08:49:11.292Z,101557.81
2024-01-29T08:51:38.612Z,101549.00
2024-01-29T08:54:06.173Z,101549.75
2024-01-29T08:56:33.491Z,101549.75
2024-01-29T08:59:00.849Z,101553.00
2024-01-29T09:01:28.332Z,101543.94
2024-01-29T09:03:55.717Z,101544.59
2024-01-29T09:06:23.291Z,101547.94
2024-01-29T09:08:50.617Z,101557.16
2024-01-29T09:11:18.001Z,101539.63
2024-01-29T09:13:45.337Z,101533.31
2024-01-29T09:16:12.608Z,101538.50
2024-01-29T09:18:40.346Z,101535.72
2024-01-29T09:21:09.261Z,101539.88
2024-01-29T09:23:36.827Z,101534.81
2024-01-29T09:26:04.232Z,101529.75
2024-01-29T09:28:31.520Z,101526.94
2024-01-29T09:30:58.825Z,101521.47
2024-01-29T09:33:27.578Z,101513.72
2024-01-29T09:35:55.254Z,101515.50
2024-01-29T09:38:22.523Z,101517.78
2024-01-29T09:40:49.977Z,101511.13
2024-01-29T09:43:18.094Z,101525.22
2024-01-29T09:45:45.901Z,101520.16
2024-01-29T09:48:15.942Z,101523.28
2024-01-29T09:50:46.565Z,101518.75
2024-01-29T09:53:18.142Z,101506.22
2024-01-29T09:55:45.500Z,101505.16
2024-01-29T09:58:12.872Z,101514.94
2024-01-29T10:00:40.350Z,101513.97
2024-01-29T10:03:09.312Z,101509.06
2024-01-29T10:05:37.175Z,101510.44
2024-01-29T10:08:04.706Z,101495.84
2024-01-29T10:10:32.061Z,101501.66
2024-01-29T10:13:05.597Z,101499.69
2024-01-29T10:15:33.249Z,101497.16
2024-01-29T10:18:00.904Z,101491.53
2024-01-29T10:20:29.185Z,101481.75
2024-01-29T10:22:59.715Z,101498.25
2024-01-29T10:25:27.477Z,101503.78
2024-01-29T10:27:55.470Z,101505.97
2024-01-29T10:30:23.437Z,101497.66
2024-01-29T10:32:50.758Z,101491.13
2024-01-29T10:35:18.216Z,101488.38
2024-01-29T10:37:47.516Z,101486.84
2024-01-29T10:40:16.774Z,101490.44
2024-01-29T10:42:46.664Z,101487.91
2024-01-29T10:45:15.672Z,101483.56
2024-01-29T10:47:47.221Z,101488.22
2024-01-29T10:50:17.807Z,101480.72
2024-01-29T10:52:46.606Z,101478.94
2024-01-29T10:55:17.393Z,101475.38
2024-01-29T10:57:48.504Z,101481.03
2024-01-29T11:00:17.882Z,101476.72
2024-01-29T11:02:45.704Z,101471.22
2024-01-29T11:05:15.008Z,101454.81
2024-01-29T11:07:44.660Z,101457.50
2024-01-29T11:10:22.902Z,101443.34
2024-01-29T11:12:51.948Z,101450.00
2024-01-29T11:15:19.337Z,101448.78
2024-01-29T11:17:47.118Z,101449.09
2024-01-29T11:20:15.623Z,101447.59
2024-01-29T11:22:50.901Z,101447.81
2024-01-29T11:25:18.740Z,101435.97
2024-01-29T11:27:48.343Z,101442.56
2024-01-29T11:30:24.603Z,101444.94
2024-01-29T11:32:52.836Z,101451.28
2024-01-29T11:35:31.290Z,101445.50
2024-01-29T11:38:10.189Z,101459.91
2024-01-29T11:40:41.638Z,101447.28
2024-01-29T11:43:16.340Z,101444.22
2024-01-29T11:45:48.206Z,101443.50
2024-01-29T11:48:16.756Z,101433.88
2024-01-29T11:50:46.662Z,101445.38
2024-01-29T11:53:15.691Z,101435.34
2024-01-29T11:55:43.631Z,101432.09
2024-01-29T11:58:12.930Z,101429.81
2024-01-29T12:00:40.963Z,101417.75
2024-01-29T12:03:10.084Z,101413.28
2024-01-29T12:05:37.535Z,101413.03
2024-01-29T12:08:05.399Z,101408.97
2024-01-29T12:10:32.847Z,101406.44
2024-01-29T12:13:00.141Z,101396.88
2024-01-29T12:15:27.634Z,101400.31
2024-01-29T12:17:55.857Z,101389.53
2024-01-29T12:20:23.704Z,101389.69
2024-01-29T12:22:51.112Z,101392.94
2024-01-29T12:25:18.541Z,101390.25
2024-01-29T12:27:45.947Z,101382.78
2024-01-29T12:30:14.776Z,101375.09
2024-01-29T12:32:44.937Z,101383.56
2024-01-29T12:35:30.060Z,101375.97
2024-01-29T12:38:06.846Z,101374.72
2024-01-29T12:40:35.001Z,101375.53
2024-01-29T12:43:03.285Z,101369.75
2024-01-29T12:45:30.902Z,101366.63
2024-01-29T12:48:04.362Z,101368.19
2024-01-29T12:50:31.836Z,101370.84
2024-01-29T12:53:00.168Z,101362.22
2024-01-29T12:55:27.545Z,101356.38
2024-01-29T12:57:54.992Z,101351.81
2024-01-29T13:00:22.566Z,101341.69
2024-01-29T13:02:51.171Z,101344.72
2024-01-29T13:05:19.128Z,101340.25
2024-01-29T13:07:47.091Z,101344.19
2024-01-29T13:10:15.172Z,101343.91
2024-01-29T13:12:42.671Z,101355.34
2024-01-29T13:15:12.618Z,101350.44
2024-01-29T13:17:43.266Z,101351.84
2024-01-29T13:20:12.746Z,101359.56
2024-01-29T13:22:40.327Z,101351.72
2024-01-29T13:25:08.372Z,101354.44
2024-01-29T13:27:35.888Z,101351.56
2024-01-29T13:30:03.749Z,101347.25
2024-01-29T13:32:31.570Z,101346.13
2024-01-29T13:34:58.993Z,101344.28
2024-01-29T13:37:26.273Z,101343.03
2024-01-29T13:39:53.647Z,101350.59
2024-01-29T13:42:20.990Z,101341.16
2024-01-29T13:44:48.285Z,101334.50
2024-01-29T13:47:15.614Z,101333.44
2024-01-29T13:49:42.982Z,101335.53
2024-01-29T13:52:10.333Z,101337.25
2024-01-29T13:54:38.020Z,101330.94
2024-01-29T13:57:05.374Z,101325.81
2024-01-29T13:59:33.830Z,101334.56
2024-01-29T14:02:01.342Z,101336.78
2024-01-29T14:04:28.809Z,101330.25
2024-01-29T14:06:57.398Z,101329.09
2024-01-29T14:09:24.706Z,101330.03
2024-01-29T14:11:52.016Z,101329.28
2024-01-29T14:14:22.032Z,101327.22
2024-01-29T14:16:52.338Z,101330.50
2024-01-29T14:19:19.680Z,101327.59
2024-01-29T14:21:47.067Z,101331.72
2024-01-29T14:24:14.417Z,101329.75
2024-01-29T14:26:42.908Z,101331.97
2024-01-29T14:29:10.174Z,101333.53
2024-01-29T14:31:37.523Z,101336.34
2024-01-29T14:34:05.467Z,101321.47
2024-01-29T14:36:32.879Z,101331.47
2024-01-29T14:39:00.217Z,101340.84
2024-01-29T14:41:27.537Z,101333.91
2024-01-29T14:43:54.813Z,101326.53
2024-01-29T14:46:24.416Z,101336.94
2024-01-29T14:48:52.234Z,101330.34
2024-01-29T14:51:19.593Z,101328.88
2024-01-29T14:53:46.856Z,101327.50
2024-01-29T14:56:14.269Z,101321.72
2024-01-29T14:58:41.619Z,101317.00
2024-01-29T15:01:08.936Z,101315.13
2024-01-29T15:03:37.867Z,101320.41
2024-01-29T15:06:05.514Z,101322.03
2024-01-29T15:08:32.936Z,101317.56
2024-01-29T15:11:01.790Z,101316.09
2024-01-29T15:13:31.935Z,101319.13
2024-01-29T15:15:59.571Z,101312.09
2024-01-29T15:18:27.273Z,101319.59
2024-01-29T15:20:54.571Z,101320.47
2024-01-29T15:23:21.993Z,101328.13
2024-01-29T15:25:49.324Z,101317.72
2024-01-29T15:28:18.279Z,101313.91
2024-01-29T15:30:45.665Z,101298.94
2024-01-29T15:33:13.172Z,101284.25
2024-01-29T15:35:41.910Z,101286.72
2024-01-29T15:38:12.857Z,101284.69
2024-01-29T15:40:41.593Z,101287.44
2024-01-29T15:43:09.025Z,101293.38
2024-01-29T15:45:36.485Z,101286.97
2024-01-29T15:48:04.073Z,101283.34
2024-01-29T15:50:31.415Z,101270.59
2024-01-29T15:52:58.686Z,101256.50
2024-01-29T15:55:27.128Z,101267.91
2024-01-29T15:57:54.508Z,101261.47
2024-01-29T16:00:21.896Z,101271.25
2024-01-29T16:02:49.298Z,101264.59
2024-01-29T16:05:17.197Z,101251.88
2024-01-29T16:07:46.675Z,101261.06
2024-01-29T16:10:14.209Z,101256.78
2024-01-29T16:12:41.998Z,101266.28
2024-01-29T16:15:09.464Z,101264.56
2024-01-29T16:17:36.914Z,101264.72
2024-01-29T16:20:04.431Z,101264.72
2024-01-29T16:22:31.834Z,101260.56
2024-01-29T16:24:59.187Z,101258.91
2024-01-29T16:27:26.627Z,101256.25
2024-01-29T16:29:56.287Z,101252.44
2024-01-29T16:32:23.640Z,101248.56
2024-01-29T16:34:50.979Z,101256.25
2024-01-29T16:37:18.396Z,101249.41
2024-01-29T16:39:45.888Z,101236.22
2024-01-29T16:42:13.230Z,101223.19
2024-01-29T16:44:42.091Z,101209.53
2024-01-29T16:47:09.498Z,101174.22
2024-01-29T16:49:36.855Z,101161.81
2024-01-29T16:52:05.584Z,101158.19
2024-01-29T16:54:33.626Z,101146.94
2024-01-29T16:57:05.419Z,101123.88
2024-01-29T16:59:33.215Z,101104.66
2024-01-29T17:02:00.991Z,101155.44
2024-01-29T17:04:28.483Z,101153.91
2024-01-29T17:06:55.831Z,101224.31
2024-01-29T17:09:23.149Z,101230.56
2024-01-29T17:11:50.469Z,101208.91
2024-01-29T17:14:17.813Z,101212.19
2024-01-29T17:16:46.161Z,101202.97
2024-01-29T17:19:13.584Z,101215.81
2024-01-29T17:21:41.000Z,101199.97
2024-01-29T17:24:08.371Z,101199.72
2024-01-29T17:26:36.576Z,101206.31
2024-01-29T17:29:03.943Z,101194.88
2024-01-29T17:31:31.278Z,101185.53
2024-01-29T17:33:58.950Z,101190.41
2024-01-29T17:36:26.595Z,101185.13
2024-01-29T17:38:53.941Z,101183.03
2024-01-29T17:41:21.684Z,101178.31
2024-01-29T17:43:50.126Z,101188.41
2024-01-29T17:46:17.558Z,101164.63
2024-01-29T17:48:45.026Z,101163.16
2024-01-29T17:51:12.380Z,101163.75
2024-01-29T17:53:40.066Z,101149.34
2024-01-29T17:56:07.519Z,101139.38
2024-01-29T17:58:34.964Z,101145.03
2024-01-29T18:01:02.529Z,101151.72
2024-01-29T18:03:29.998Z,101153.06
2024-01-29T18:05:57.299Z,101142.63
2024-01-29T18:08:24.756Z,101145.59
2024-01-29T18:10:53.267Z,101147.66
2024-01-29T18:13:22.624Z,101136.97
2024-01-29T18:15:50.049Z,101137.59
2024-01-29T18:18:17.486Z,101134.66
2024-01-29T18:20:44.894Z,101137.31
2024-01-29T18:23:14.054Z,101129.00
2024-01-29T18:25:41.904Z,101124.72
2024-01-29T18:28:09.300Z,101123.53
2024-01-29T18:30:37.266Z,101120.84
2024-01-29T18:33:04.893Z,101107.31
2024-01-29T18:35:32.328Z,101102.75
2024-01-29T18:37:59.610Z,101107.53
2024-01-29T18:40:28.870Z,101101.84
2024-01-29T18:42:56.519Z,101102.88
2024-01-29T18:45:23.981Z,101085.69
2024-01-29T18:47:51.412Z,101093.69
2024-01-29T18:50:19.076Z,101081.53
2024-01-29T18:52:46.425Z,101083.66
2024-01-29T18:55:13.954Z,101080.78
2024-01-29T18:57:41.495Z,101077.66
2024-01-29T19:00:09.054Z,101080.19
2024-01-29T19:02:36.450Z,101081.84
2024-01-29T19:05:04.059Z,101073.53
2024-01-29T19:07:31.493Z,101082.91
2024-01-29T19:09:58.804Z,101080.38
2024-01-29T19:12:26.148Z,101086.59
2024-01-29T19:14:53.476Z,101068.63
2024-01-29T19:17:20.771Z,101072.34
2024-01-29T19:19:48.231Z,101069.06
2024-01-29T19:22:15.922Z,101073.84
2024-01-29T19:24:43.476Z,101064.91
2024-01-29T19:27:11.484Z,101046.34
2024-01-29T19:29:40.399Z,101059.16
2024-01-29T19:32:09.434Z,101055.13
2024-01-29T19:34:37.802Z,101055.56
2024-01-29T19:37:06.087Z,101053.03
2024-01-29T19:39:33.497Z,101051.72
2024-01-29T19:42:00.966Z,101025.09
2024-01-29T19:44:28.252Z,101038.03
2024-01-29T19:46:55.560Z,101035.81
2024-01-29T19:49:23.100Z,101035.81
2024-01-29T19:51:52.292Z,101028.97
2024-01-29T19:54:19.625Z,101034.03
2024-01-29T19:56:46.918Z,101034.91
2024-01-29T19:59:14.224Z,101042.91
2024-01-29T20:01:42.189Z,101051.25
2024-01-29T20:04:09.845Z,101051.09
2024-01-29T20:06:38.133Z,101031.34
2024-01-29T20:09:06.893Z,101026.44
2024-01-29T20:11:34.231Z,101017.97
2024-01-29T20:14:02.057Z,101011.41
2024-01-29T20:16:29.355Z,101006.69
2024-01-29T20:18:56.768Z,101005.94
2024-01-29T20:21:24.051Z,100996.56
2024-01-29T20:23:55.151Z,101001.78
2024-01-29T20:26:22.704Z,101001.78
2024-01-29T20:28:50.136Z,100995.84
2024-01-29T20:31:26.974Z,101000.88
2024-01-29T20:33:54.717Z,100980.06
2024-01-29T20:36:24.503Z,100968.47
2024-01-29T20:38:52.047Z,100975.75
2024-01-29T20:41:32.494Z,100971.59
2024-01-29T20:44:07.728Z,100984.81
2024-01-29T20:46:35.580Z,100971.88
2024-01-29T20:49:03.442Z,100971.13
2024-01-29T20:51:31.011Z,100962.09
2024-01-29T20:53:58.552Z,100966.97
2024-01-29T20:56:26.156Z,100965.91
2024-01-29T20:58:54.038Z,100963.56
2024-01-29T21:01:21.563Z,100950.78
2024-01-29T21:03:49.371Z,100940.22
2024-01-29T21:06:16.904Z,100949.88
2024-01-29T21:08:44.285Z,100942.31
2024-01-29T21:11:11.947Z,100946.31
2024-01-29T21:13:39.362Z,100951.06
2024-01-29T21:16:07.081Z,100952.56
2024-01-29T21:18:35.083Z,100968.91
2024-01-29T21:21:02.498Z,100965.91
2024-01-29T21:23:29.808Z,100965.03
2024-01-29T21:25:57.100Z,100957.00
2024-01-29T21:28:24.715Z,100946.28
2024-01-29T21:30:52.075Z,100928.88
2024-01-29T21:33:19.387Z,100928.47
2024-01-29T21:35:46.670Z,100922.81
2024-01-29T21:38:14.122Z,100918.22
2024-01-29T21:40:41.403Z,100917.47
2024-01-29T21:43:08.720Z,100929.34
2024-01-29T21:45:36.014Z,100947.19
2024-01-29T21:48:04.848Z,100933.94
2024-01-29T21:50:32.629Z,100946.56
2024-01-29T21:52:59.918Z,100932.00
2024-01-29T21:55:27.271Z,100937.59
2024-01-29T21:57:55.915Z,100927.53
2024-01-29T22:00:23.334Z,100917.28
2024-01-29T22:02:50.659Z,100943.88
2024-01-29T22:05:18.231Z,100944.94
2024-01-29T22:07:46.273Z,100942.56
2024-01-29T22:10:13.668Z,100937.91
2024-01-29T22:12:41.385Z,100930.16
2024-01-29T22:15:10.287Z,100933.75
2024-01-29T22:17:37.687Z,100961.56
2024-01-29T22:20:05.436Z,100963.75
2024-01-29T22:22:32.829Z,100966.13
2024-01-29T22:25:00.331Z,100936.19
2024-01-29T22:27:30.553Z,100936.47
2024-01-29T22:29:59.840Z,100940.50
2024-01-29T22:32:27.125Z,100935.44
2024-01-29T22:34:54.483Z,100942.44
2024-01-29T22:37:22.322Z,100951.22
2024-01-29T22:39:49.678Z,100954.91
2024-01-29T22:42:17.026Z,100963.81
2024-01-29T22:44:44.354Z,100952.31
2024-01-29T22:47:11.674Z,100960.50
2024-01-29T22:49:38.997Z,100934.78
2024-01-29T22:52:06.635Z,100925.25
2024-01-29T22:54:33.995Z,100927.72
2024-01-29T22:57:01.285Z,100898.88
2024-01-29T22:59:28.612Z,100921.66
2024-01-29T23:01:56.053Z,100946.06
2024-01-29T23:04:24.715Z,100946.97
2024-01-29T23:06:52.347Z,100932.78
2024-01-29T23:09:19.707Z,100928.44
2024-01-29T23:11:47.068Z,100920.66
2024-01-29T23:14:14.647Z,100923.50
2024-01-29T23:16:41.945Z,100940.03
2024-01-29T23:19:09.541Z,100933.81
2024-01-29T23:21:37.198Z,100934.97
2024-01-29T23:24:04.645Z,100934.56
2024-01-29T23:26:31.941Z,100937.84
2024-01-29T23:28:59.287Z,100931.28
2024-01-29T23:31:26.740Z,100926.78
2024-01-29T23:33:54.669Z,100921.72
2024-01-29T23:36:21.994Z,100922.47
2024-01-29T23:38:49.311Z,100929.31
2024-01-29T23:41:16.595Z,100927.09
2024-01-29T23:43:44.055Z,100944.19
2024-01-29T23:46:11.415Z,100932.59
2024-01-29T23:48:38.792Z,100929.91
2024-01-29T23:51:06.105Z,100910.97
2024-01-29T23:53:33.678Z,100909.47
2024-01-29T23:56:00.974Z,100894.25
2024-01-29T23:58:28.342Z,100872.72
